createdAt,value
2018-03-15T00:01:22.371Z,30.15
2018-03-15T00:03:49.976Z,30.85
2018-03-15T00:06:17.581Z,29.15
2018-03-15T00:08:45.906Z,27.45
2018-03-15T00:11:13.513Z,28.42
2018-03-15T00:13:41.114Z,29.90
2018-03-15T00:16:08.719Z,28.10
2018-03-15T00:18:36.324Z,29.63
2018-03-15T00:21:03.928Z,32.05
2018-03-15T00:23:31.532Z,32.00
2018-03-15T00:25:59.860Z,30.92
2018-03-15T00:28:27.462Z,32.75
2018-03-15T00:30:55.786Z,33.03
2018-03-15T00:33:23.392Z,32.03
2018-03-15T00:35:51.715Z,30.55
2018-03-15T00:38:19.319Z,29.85
2018-03-15T00:40:46.805Z,30.00
2018-03-15T00:43:15.129Z,31.20
2018-03-15T00:45:42.734Z,30.25
2018-03-15T00:48:11.058Z,30.55
2018-03-15T00:50:38.663Z,31.40
2018-03-15T00:53:06.320Z,31.90
2018-03-15T00:55:33.873Z,32.63
2018-03-15T00:58:01.476Z,30.30
2018-03-15T01:00:29.809Z,28.83
2018-03-15T01:02:57.405Z,29.60
2018-03-15T01:05:25.731Z,30.17
2018-03-15T01:07:53.335Z,29.98
2018-03-15T01:10:21.658Z,30.67
2018-03-15T01:12:49.144Z,28.90
2018-03-15T01:15:16.748Z,29.63
2018-03-15T01:17:45.074Z,28.80
2018-03-15T01:20:12.678Z,31.05
2018-03-15T01:22:41.002Z,30.70
2018-03-15T01:25:08.607Z,31.17
2018-03-15T01:27:36.211Z,31.83
2018-03-15T01:30:03.816Z,31.42
2018-03-15T01:32:31.420Z,31.40
2018-03-15T01:34:59.024Z,31.73
2018-03-15T01:37:26.629Z,31.50
2018-03-15T01:39:54.954Z,30.67
2018-03-15T01:42:22.558Z,31.67
2018-03-15T01:44:50.883Z,32.75
2018-03-15T01:47:18.368Z,33.13
2018-03-15T01:49:45.972Z,31.10
2018-03-15T01:52:14.296Z,31.87
2018-03-15T01:54:41.901Z,33.00
2018-03-15T01:57:10.227Z,34.35
2018-03-15T01:59:37.831Z,31.60
2018-03-15T02:02:06.155Z,31.00
2018-03-15T02:04:33.762Z,29.33
2018-03-15T02:07:01.364Z,28.87
2018-03-15T02:09:28.968Z,29.35
2018-03-15T02:11:56.453Z,31.10
2018-03-15T02:14:24.058Z,31.80
2018-03-15T02:16:51.662Z,30.40
2018-03-15T02:19:19.268Z,32.40
2018-03-15T02:21:46.757Z,29.80
2018-03-15T02:24:14.356Z,28.25
2018-03-15T02:26:41.961Z,29.90
2018-03-15T02:29:09.567Z,31.37
2018-03-15T02:31:37.179Z,34.45
2018-03-15T02:34:04.775Z,34.50
2018-03-15T02:36:32.378Z,34.72
2018-03-15T02:39:00.704Z,34.00
2018-03-15T02:41:28.309Z,31.20
2018-03-15T02:43:55.913Z,31.17
2018-03-15T02:46:23.518Z,31.15
2018-03-15T02:48:51.122Z,30.90
2018-03-15T02:51:18.727Z,30.55
2018-03-15T02:53:46.331Z,32.45
2018-03-15T02:56:14.656Z,31.48
2018-03-15T02:58:42.260Z,31.27
2018-03-15T03:01:10.584Z,33.30
2018-03-15T03:03:38.189Z,31.40
2018-03-15T03:06:05.795Z,33.50
2018-03-15T03:08:33.398Z,33.60
2018-03-15T03:11:01.002Z,34.33
2018-03-15T03:13:28.610Z,33.20
2018-03-15T03:15:56.212Z,30.98
2018-03-15T03:18:24.535Z,31.25
2018-03-15T03:20:52.141Z,33.58
2018-03-15T03:23:20.465Z,37.28
2018-03-15T03:25:48.070Z,34.45
2018-03-15T03:28:15.567Z,35.80
2018-03-15T03:30:43.161Z,35.65
2018-03-15T03:33:10.763Z,33.55
2018-03-15T03:35:38.368Z,34.88
2018-03-15T03:38:05.973Z,38.73
2018-03-15T03:40:33.577Z,37.20
2018-03-15T03:43:01.066Z,37.10
2018-03-15T03:45:28.666Z,36.55
2018-03-15T03:47:56.270Z,39.17
2018-03-15T03:50:23.875Z,39.50
2018-03-15T03:52:51.418Z,36.95
2018-03-15T03:55:18.967Z,35.90
2018-03-15T03:57:46.574Z,32.37
2018-03-15T04:00:14.895Z,34.15
2018-03-15T04:02:42.497Z,31.87
2018-03-15T04:05:10.103Z,33.33
2018-03-15T04:07:37.707Z,32.50
2018-03-15T04:10:05.311Z,25.20
2018-03-15T04:12:33.636Z,22.43
2018-03-15T04:15:01.241Z,20.67
2018-03-15T04:17:29.565Z,22.37
2018-03-15T04:34:39.918Z,20.77
2018-03-15T04:37:07.520Z,34.55
2018-03-15T04:39:35.126Z,35.63
2018-03-15T04:42:02.730Z,38.30
2018-03-15T04:44:30.336Z,36.55
2018-03-15T04:46:58.658Z,36.15
2018-03-15T04:49:26.265Z,35.30
2018-03-15T04:51:54.589Z,35.13
2018-03-15T04:54:22.193Z,33.17
2018-03-15T04:56:49.797Z,34.45
2018-03-15T04:59:17.403Z,34.00
2018-03-15T05:01:45.008Z,32.65
2018-03-15T05:04:12.628Z,31.15
2018-03-15T05:06:40.217Z,33.45
2018-03-15T05:09:08.540Z,32.10
2018-03-15T05:11:36.154Z,30.87
2018-03-15T05:14:04.469Z,31.85
2018-03-15T05:16:32.074Z,30.42
2018-03-15T05:18:59.678Z,31.35
2018-03-15T05:21:27.284Z,32.25
2018-03-15T05:23:54.889Z,34.35
2018-03-15T05:26:22.492Z,32.30
2018-03-15T05:28:50.097Z,32.15
2018-03-15T05:31:18.421Z,32.13
2018-03-15T05:33:46.025Z,32.75
2018-03-15T05:36:13.630Z,30.60
2018-03-15T05:38:41.114Z,32.03
2018-03-15T05:41:09.439Z,31.35
2018-03-15T05:43:37.764Z,31.48
2018-03-15T05:46:05.369Z,30.80
2018-03-15T05:48:32.854Z,29.00
2018-03-15T05:51:00.457Z,28.90
2018-03-15T05:53:28.062Z,30.42
2018-03-15T05:55:56.387Z,30.33
2018-03-15T05:58:23.991Z,31.08
2018-03-15T06:00:51.604Z,30.70
2018-03-15T06:03:19.200Z,29.77
2018-03-15T06:05:46.807Z,31.80
2018-03-15T06:08:14.409Z,31.50
2018-03-15T06:10:42.013Z,28.25
2018-03-15T06:13:10.339Z,26.75
2018-03-15T06:15:37.943Z,26.45
2018-03-15T06:18:06.267Z,25.73
2018-03-15T06:20:33.872Z,24.63
2018-03-15T06:23:01.358Z,23.87
2018-03-15T06:25:28.963Z,23.35
2018-03-15T06:27:56.567Z,27.13
2018-03-15T06:30:24.890Z,25.25
2018-03-15T06:32:52.495Z,25.00
2018-03-15T06:35:20.099Z,27.53
2018-03-15T06:37:47.705Z,27.98
2018-03-15T06:40:15.308Z,31.60
2018-03-15T06:42:42.913Z,28.73
2018-03-15T06:45:11.240Z,27.30
2018-03-15T06:47:39.563Z,30.33
2018-03-15T06:50:07.167Z,26.25
2018-03-15T06:52:35.490Z,28.30
2018-03-15T06:55:03.095Z,29.60
2018-03-15T06:57:30.704Z,29.33
2018-03-15T06:59:58.305Z,28.73
2018-03-15T07:02:25.910Z,29.10
2018-03-15T07:04:53.513Z,27.65
2018-03-15T07:07:20.998Z,27.42
2018-03-15T07:09:48.483Z,28.20
2018-03-15T07:12:16.810Z,25.15
2018-03-15T07:14:44.412Z,25.77
2018-03-15T07:17:12.746Z,23.05
2018-03-15T07:19:40.341Z,22.52
2018-03-15T07:22:07.947Z,22.58
2018-03-15T07:24:35.550Z,23.23
2018-03-15T07:27:03.155Z,23.10
2018-03-15T07:29:30.640Z,21.42
2018-03-15T07:31:58.243Z,23.10
2018-03-15T07:34:25.850Z,22.25
2018-03-15T07:36:53.453Z,22.77
2018-03-15T07:39:21.108Z,21.92
2018-03-15T07:41:48.663Z,20.77
2018-03-15T07:44:16.277Z,20.45
2018-03-15T07:46:43.872Z,21.20
2018-03-15T07:49:11.476Z,20.80
2018-03-15T07:51:39.080Z,20.57
2018-03-15T07:54:06.566Z,19.45
2018-03-15T07:56:34.171Z,18.58
2018-03-15T07:59:02.494Z,20.62
2018-03-15T08:01:30.103Z,19.08
2018-03-15T08:03:58.424Z,19.10
2018-03-15T08:06:26.028Z,20.45
2018-03-15T08:08:53.514Z,18.87
2018-03-15T08:11:21.836Z,17.90
2018-03-15T08:13:49.441Z,18.48
2018-03-15T08:16:17.766Z,19.35
2018-03-15T08:18:45.370Z,18.80
2018-03-15T08:21:12.974Z,19.37
2018-03-15T08:23:40.580Z,20.73
2018-03-15T08:26:08.184Z,19.30
2018-03-15T08:28:35.669Z,19.97
2018-03-15T08:31:03.273Z,19.62
2018-03-15T08:33:30.757Z,19.80
2018-03-15T08:35:59.082Z,18.60
2018-03-15T08:38:26.686Z,19.70
2018-03-15T08:40:55.012Z,20.17
2018-03-15T08:43:22.615Z,20.20
2018-03-15T08:45:50.236Z,20.27
2018-03-15T08:48:17.825Z,20.20
2018-03-15T08:50:45.446Z,20.27
2018-03-15T08:53:13.035Z,22.45
2018-03-15T08:55:40.639Z,21.98
2018-03-15T08:58:08.964Z,21.75
2018-03-15T09:00:36.570Z,19.83
2018-03-15T09:03:04.895Z,20.95
2018-03-15T09:05:32.497Z,21.02
2018-03-15T09:08:00.113Z,20.40
2018-03-15T09:10:27.706Z,19.48
2018-03-15T09:12:55.311Z,20.05
2018-03-15T09:15:22.918Z,19.05
2018-03-15T09:17:50.519Z,19.25
2018-03-15T09:20:18.845Z,19.37
2018-03-15T09:22:46.449Z,18.83
2018-03-15T09:25:14.053Z,17.75
2018-03-15T09:27:41.658Z,17.48
2018-03-15T09:30:09.262Z,16.30
2018-03-15T09:32:36.868Z,16.70
2018-03-15T09:35:04.471Z,17.62
2018-03-15T09:37:32.075Z,15.18
2018-03-15T09:39:59.681Z,15.43
2018-03-15T09:42:28.006Z,15.88
2018-03-15T09:44:55.610Z,15.40
2018-03-15T09:47:23.935Z,15.10
2018-03-15T09:49:51.539Z,15.97
2018-03-15T09:52:19.145Z,15.48
2018-03-15T09:54:46.988Z,15.40
2018-03-15T09:57:15.312Z,15.13
2018-03-15T09:59:42.918Z,15.85
2018-03-15T10:02:11.242Z,15.27
2018-03-15T10:04:38.847Z,16.02
2018-03-15T10:07:06.455Z,15.80
2018-03-15T10:09:34.055Z,15.23
2018-03-15T10:12:01.660Z,15.07
2018-03-15T10:14:29.988Z,15.30
2018-03-15T10:16:57.588Z,14.75
2018-03-15T10:19:25.919Z,13.52
2018-03-15T10:21:53.518Z,13.68
2018-03-15T10:24:21.843Z,14.50
2018-03-15T10:26:50.167Z,15.23
2018-03-15T10:29:17.772Z,15.57
2018-03-15T10:31:45.376Z,15.73
2018-03-15T10:34:12.981Z,14.67
2018-03-15T10:36:41.306Z,14.75
2018-03-15T10:39:08.910Z,15.32
2018-03-15T10:41:36.515Z,17.77
2018-03-15T10:44:04.119Z,16.62
2018-03-15T10:46:31.724Z,15.63
2018-03-15T10:48:59.328Z,14.35
2018-03-15T10:51:26.933Z,14.53
2018-03-15T10:53:54.536Z,15.07
2018-03-15T10:56:22.141Z,14.10
2018-03-15T10:58:50.466Z,14.65
2018-03-15T11:01:22.031Z,16.00
2018-03-15T11:03:50.596Z,14.70
2018-03-15T11:06:23.720Z,12.70
2018-03-15T11:08:56.966Z,13.90
2018-03-15T11:11:24.569Z,14.23
2018-03-15T11:13:52.174Z,14.27
2018-03-15T11:16:19.778Z,13.95
2018-03-15T11:18:47.389Z,15.38
2018-03-15T11:21:15.709Z,14.07
2018-03-15T11:23:43.357Z,13.30
2018-03-15T11:26:10.920Z,13.60
2018-03-15T11:28:38.521Z,13.18
2018-03-15T11:31:06.128Z,12.18
2018-03-15T11:33:33.731Z,13.38
2018-03-15T11:36:01.336Z,12.68
2018-03-15T11:38:29.660Z,12.43
2018-03-15T11:40:57.264Z,12.45
2018-03-15T11:43:25.588Z,13.07
2018-03-15T11:45:54.152Z,12.15
2018-03-15T11:48:21.759Z,11.75
2018-03-15T11:50:49.362Z,12.37
2018-03-15T11:53:16.967Z,12.10
2018-03-15T11:55:44.571Z,13.10
2018-03-15T11:58:12.984Z,10.83
2018-03-15T12:00:40.548Z,11.10
2018-03-15T12:03:08.108Z,11.35
2018-03-15T12:05:35.710Z,11.10
2018-03-15T12:08:03.316Z,10.95
2018-03-15T12:10:30.919Z,11.77
2018-03-15T12:12:58.525Z,13.50
2018-03-15T12:15:26.848Z,10.60
2018-03-15T12:17:54.455Z,11.48
2018-03-15T12:20:22.056Z,9.55
2018-03-15T12:22:49.662Z,10.60
2018-03-15T12:25:17.267Z,10.30
2018-03-15T12:27:45.591Z,9.75
2018-03-15T12:30:13.074Z,9.20
2018-03-15T12:32:40.681Z,8.90
2018-03-15T12:35:08.284Z,9.18
2018-03-15T12:37:35.888Z,8.90
2018-03-15T12:40:04.213Z,9.00
2018-03-15T12:42:31.821Z,8.60
2018-03-15T12:45:00.142Z,9.38
2018-03-15T12:47:27.746Z,9.30
2018-03-15T12:49:55.231Z,8.82
2018-03-15T12:52:22.835Z,8.98
2018-03-15T12:54:50.439Z,8.50
2018-03-15T12:57:18.771Z,8.90
2018-03-15T12:59:46.369Z,8.32
2018-03-15T13:02:13.854Z,8.80
2018-03-15T13:04:41.458Z,8.20
2018-03-15T13:07:08.943Z,8.15
2018-03-15T13:09:36.547Z,9.67
2018-03-15T13:12:04.152Z,8.75
2018-03-15T13:14:31.758Z,9.38
2018-03-15T13:16:59.360Z,9.35
2018-03-15T13:19:26.966Z,9.60
2018-03-15T13:21:55.291Z,9.80
2018-03-15T13:24:22.896Z,10.30
2018-03-15T13:26:50.499Z,10.38
2018-03-15T13:29:18.103Z,10.03
2018-03-15T13:31:45.709Z,10.55
2018-03-15T13:34:13.314Z,10.30
2018-03-15T13:36:40.919Z,10.00
2018-03-15T13:39:09.300Z,11.12
2018-03-15T13:41:37.566Z,12.30
2018-03-15T13:44:05.893Z,12.13
2018-03-15T13:46:33.496Z,11.55
2018-03-15T13:49:01.099Z,12.27
2018-03-15T13:51:28.584Z,13.23
2018-03-15T13:53:56.190Z,12.13
2018-03-15T13:56:24.513Z,11.60
2018-03-15T13:58:52.118Z,10.93
2018-03-15T14:01:19.725Z,12.13
2018-03-15T14:03:47.327Z,11.90
2018-03-15T14:06:14.932Z,12.02
2018-03-15T14:08:42.538Z,11.50
2018-03-15T14:11:10.141Z,11.87
2018-03-15T14:13:38.465Z,12.60
2018-03-15T14:16:06.070Z,13.13
2018-03-15T14:18:34.394Z,11.43
2018-03-15T14:21:01.999Z,12.07
2018-03-15T14:23:29.605Z,12.02
2018-03-15T14:25:57.208Z,11.60
2018-03-15T14:28:24.814Z,11.88
2018-03-15T14:30:52.417Z,11.75
2018-03-15T14:33:20.031Z,11.70
2018-03-15T14:35:48.345Z,12.15
2018-03-15T14:38:15.952Z,11.23
2018-03-15T14:40:44.276Z,10.88
2018-03-15T14:43:11.881Z,11.20
2018-03-15T14:45:39.484Z,12.40
2018-03-15T14:48:07.091Z,10.95
2018-03-15T14:50:34.693Z,11.60
2018-03-15T14:53:03.021Z,11.10
2018-03-15T14:55:30.622Z,11.45
2018-03-15T14:57:59.000Z,11.35
2018-03-15T15:00:26.551Z,10.52
2018-03-15T15:02:54.158Z,10.90
2018-03-15T15:05:21.761Z,11.43
2018-03-15T15:07:49.366Z,11.10
2018-03-15T15:10:16.970Z,11.00
2018-03-15T15:12:44.605Z,11.68
2018-03-15T15:15:12.178Z,11.55
2018-03-15T15:17:39.786Z,11.80
2018-03-15T15:20:08.109Z,10.97
2018-03-15T15:22:35.764Z,10.88
2018-03-15T15:25:04.037Z,10.98
2018-03-15T15:27:31.652Z,10.77
2018-03-15T15:29:59.246Z,10.73
2018-03-15T15:32:27.572Z,10.18
2018-03-15T15:34:55.175Z,10.50
2018-03-15T15:37:23.500Z,10.80
2018-03-15T15:39:51.105Z,10.82
2018-03-15T15:42:19.429Z,10.80
2018-03-15T15:44:47.036Z,11.80
2018-03-15T15:47:14.639Z,11.57
2018-03-15T15:49:42.242Z,11.50
2018-03-15T15:52:09.847Z,11.60
2018-03-15T15:54:38.173Z,11.20
2018-03-15T15:57:05.777Z,11.15
2018-03-15T15:59:34.103Z,11.03
2018-03-15T16:02:01.708Z,11.50
2018-03-15T16:04:30.031Z,10.50
2018-03-15T16:06:57.635Z,11.18
2018-03-15T16:09:25.239Z,10.30
2018-03-15T16:11:52.846Z,9.80
2018-03-15T16:14:20.447Z,10.85
2018-03-15T16:16:48.773Z,10.98
2018-03-15T16:19:16.377Z,10.40
2018-03-15T16:21:44.701Z,11.00
2018-03-15T16:24:12.306Z,9.93
2018-03-15T16:26:39.910Z,11.30
2018-03-15T16:29:07.515Z,9.95
2018-03-15T16:31:35.121Z,10.77
2018-03-15T16:34:02.727Z,10.45
2018-03-15T16:36:30.209Z,9.97
2018-03-15T16:38:57.813Z,13.60
2018-03-15T16:41:25.418Z,11.25
2018-03-15T16:43:53.023Z,9.98
2018-03-15T16:46:20.507Z,11.35
2018-03-15T16:48:47.991Z,11.20
2018-03-15T16:51:15.596Z,11.27
2018-03-15T16:53:43.201Z,10.32
2018-03-15T16:56:10.805Z,11.10
2018-03-15T16:58:39.130Z,10.65
2018-03-15T17:01:06.738Z,10.32
2018-03-15T17:03:35.059Z,11.27
2018-03-15T17:06:02.664Z,10.95
2018-03-15T17:08:30.268Z,11.03
2018-03-15T17:10:57.872Z,12.27
2018-03-15T17:13:25.357Z,11.60
2018-03-15T17:15:52.962Z,11.43
2018-03-15T17:18:20.567Z,10.80
2018-03-15T17:20:48.171Z,11.50
2018-03-15T17:23:15.660Z,11.80
2018-03-15T17:25:43.260Z,11.60
2018-03-15T17:28:11.585Z,11.38
2018-03-15T17:30:39.189Z,11.50
2018-03-15T17:33:06.794Z,12.13
2018-03-15T17:35:34.400Z,12.35
2018-03-15T17:38:02.003Z,12.40
2018-03-15T17:40:30.327Z,12.98
2018-03-15T17:42:57.812Z,13.05
2018-03-15T17:45:25.417Z,12.90
2018-03-15T17:47:53.021Z,12.05
2018-03-15T17:50:20.630Z,12.52
2018-03-15T17:52:48.229Z,12.48
2018-03-15T17:55:15.834Z,13.43
2018-03-15T17:57:44.159Z,14.02
2018-03-15T18:00:11.764Z,13.07
2018-03-15T18:02:39.247Z,12.60
2018-03-15T18:05:07.573Z,13.50
2018-03-15T18:07:35.182Z,12.65
2018-03-15T18:10:03.502Z,13.25
2018-03-15T18:12:31.107Z,13.37
2018-03-15T18:14:58.711Z,13.85
2018-03-15T18:17:26.315Z,13.00
2018-03-15T18:19:53.920Z,12.45
2018-03-15T18:22:21.527Z,13.20
2018-03-15T18:24:49.130Z,12.98
2018-03-15T18:27:17.454Z,12.30
2018-03-15T18:29:45.778Z,12.57
2018-03-15T18:32:14.106Z,12.32
2018-03-15T18:34:41.708Z,13.48
2018-03-15T18:37:14.112Z,12.52
2018-03-15T18:39:41.716Z,12.60
2018-03-15T18:42:09.322Z,12.30
2018-03-15T18:44:37.646Z,14.30
2018-03-15T18:47:05.970Z,13.60
2018-03-15T18:49:34.295Z,14.10
2018-03-15T18:52:01.900Z,13.20
2018-03-15T18:54:29.386Z,12.80
2018-03-15T18:56:56.988Z,12.50
2018-03-15T18:59:24.594Z,12.73
2018-03-15T19:01:52.918Z,13.30
2018-03-15T19:04:20.527Z,13.70
2018-03-15T19:06:48.848Z,13.05
2018-03-15T19:09:16.451Z,13.20
2018-03-15T19:11:44.056Z,12.23
2018-03-15T19:14:11.661Z,13.62
2018-03-15T19:16:39.266Z,12.45
2018-03-15T19:19:07.590Z,13.07
2018-03-15T19:21:35.194Z,13.43
2018-03-15T19:24:03.519Z,13.15
2018-03-15T19:26:31.123Z,13.90
2018-03-15T19:28:58.728Z,13.55
2018-03-15T19:31:26.332Z,12.65
2018-03-15T19:33:53.941Z,13.95
2018-03-15T19:36:21.545Z,13.73
2018-03-15T19:38:49.150Z,13.75
2018-03-15T19:41:16.751Z,14.30
2018-03-15T19:43:44.356Z,14.05
2018-03-15T19:46:11.960Z,13.38
2018-03-15T19:48:39.564Z,13.85
2018-03-15T19:51:07.168Z,12.85
2018-03-15T19:53:34.773Z,14.18
2018-03-15T19:56:02.429Z,13.80
2018-03-15T19:58:29.983Z,14.00
2018-03-15T20:00:57.587Z,14.50
2018-03-15T20:03:25.911Z,13.38
2018-03-15T20:05:53.516Z,14.77
2018-03-15T20:08:21.000Z,14.43
2018-03-15T20:10:49.324Z,14.85
2018-03-15T20:13:16.811Z,14.10
2018-03-15T20:15:49.215Z,13.45
2018-03-15T20:18:17.569Z,15.15
2018-03-15T20:20:45.144Z,15.02
2018-03-15T20:26:19.172Z,15.90
2018-03-15T20:28:46.607Z,17.10
2018-03-15T20:31:14.815Z,16.52
2018-03-15T20:33:48.729Z,15.48
2018-03-15T20:36:16.172Z,16.33
2018-03-15T20:38:43.624Z,17.60
2018-03-15T20:41:16.696Z,15.95
2018-03-15T20:43:45.111Z,16.75
2018-03-15T20:46:19.071Z,16.02
2018-03-15T20:48:52.103Z,14.55
2018-03-15T20:51:19.580Z,14.70
2018-03-15T20:53:46.992Z,14.60
2018-03-15T20:56:14.446Z,14.00
2018-03-15T20:58:41.883Z,14.75
2018-03-15T21:01:10.116Z,13.18
2018-03-15T21:03:37.543Z,13.73
2018-03-15T21:06:04.988Z,12.45
2018-03-15T21:08:32.432Z,13.40
2018-03-15T21:10:59.876Z,12.85
2018-03-15T21:13:27.321Z,12.65
2018-03-15T21:15:54.762Z,12.60
2018-03-15T21:18:22.978Z,12.77
2018-03-15T21:20:50.484Z,11.98
2018-03-15T21:23:17.878Z,11.63
2018-03-15T21:25:45.326Z,11.93
2018-03-15T21:28:13.526Z,11.83
2018-03-15T21:30:40.966Z,11.50
2018-03-15T21:33:08.421Z,11.40
2018-03-15T21:35:35.856Z,11.32
2018-03-15T21:38:03.303Z,11.07
2018-03-15T21:40:30.751Z,11.00
2018-03-15T21:42:58.244Z,11.38
2018-03-15T21:45:25.642Z,11.02
2018-03-15T21:47:53.098Z,11.00
2018-03-15T21:50:20.540Z,12.70
2018-03-15T21:52:47.979Z,12.75
2018-03-15T21:55:15.412Z,13.25
2018-03-15T21:57:42.868Z,13.43
2018-03-15T22:00:11.064Z,14.20
2018-03-15T22:02:38.512Z,15.68
2018-03-15T22:05:06.093Z,15.63
2018-03-15T22:07:33.566Z,16.40
2018-03-15T22:10:01.068Z,16.35
2018-03-15T22:12:28.569Z,16.95
2018-03-15T22:14:56.058Z,16.55
2018-03-15T22:17:24.314Z,16.65
2018-03-15T22:19:51.796Z,17.62
2018-03-15T22:22:19.274Z,17.80
2018-03-15T22:24:46.762Z,17.90
2018-03-15T22:27:14.247Z,17.50
2018-03-15T22:29:41.729Z,17.27
2018-03-15T22:32:09.215Z,17.65
2018-03-15T22:34:36.695Z,19.10
2018-03-15T22:37:04.161Z,17.40
2018-03-15T22:39:31.642Z,17.85
2018-03-15T22:41:59.104Z,16.87
2018-03-15T22:44:26.576Z,17.30
2018-03-15T22:46:54.045Z,15.80
2018-03-15T22:49:22.305Z,15.80
2018-03-15T22:51:49.776Z,15.95
2018-03-15T22:54:17.245Z,16.17
2018-03-15T22:56:44.726Z,16.52
2018-03-15T22:59:12.197Z,15.35
2018-03-15T23:01:39.678Z,14.65
2018-03-15T23:04:07.153Z,15.65
2018-03-15T23:06:34.625Z,15.10
2018-03-15T23:09:02.100Z,14.98
2018-03-15T23:11:29.565Z,15.85
2018-03-15T23:13:57.812Z,15.40
2018-03-15T23:16:25.273Z,14.98
2018-03-15T23:18:52.750Z,15.10
2018-03-15T23:21:20.214Z,14.60
2018-03-15T23:23:48.465Z,14.10
2018-03-15T23:26:15.943Z,14.82
2018-03-15T23:28:43.424Z,14.48
2018-03-15T23:31:10.902Z,14.43
2018-03-15T23:33:38.385Z,14.00
2018-03-15T23:36:05.854Z,14.80
2018-03-15T23:38:33.337Z,15.65
2018-03-15T23:41:00.808Z,13.70
2018-03-15T23:43:28.301Z,14.50
2018-03-15T23:45:55.771Z,15.00
2018-03-15T23:48:23.250Z,14.55
2018-03-15T23:50:50.743Z,16.70
2018-03-15T23:53:18.225Z,17.20
2018-03-15T23:55:45.709Z,17.20
2018-03-15T23:58:13.182Z,16.45
